Time;durP1;ratioP1;P1;durP2;ratioP2;P2;SDS_P1;SDS_P2;PMS_P1;PMS_P2;Temp;Humidity;BMP_temperature;BMP_pressure;BME280_temperature;BME280_humidity;BME280_pressure;Samples;Min_cycle;Max_cycle;Signal;HPM_P1;HPM_P2
2023/04/28 00:02:20;;;;;;;14.38;8.90;;;10.60;99.90;;;;;;4974957;28;20129;-68
2023/04/28 00:04:47;;;;;;;11.52;8.73;;;10.60;99.90;;;;;;4986828;28;20035;-68
2023/04/28 00:07:14;;;;;;;10.95;8.18;;;10.60;99.90;;;;;;4993624;28;20042;-68
2023/04/28 00:09:42;;;;;;;11.55;8.88;;;10.60;99.90;;;;;;4998917;28;20481;-66
2023/04/28 00:12:10;;;;;;;10.82;8.73;;;10.50;99.90;;;;;;4996963;28;20524;-68
2023/04/28 00:14:37;;;;;;;9.98;8.70;;;10.50;99.90;;;;;;4989449;28;20050;-68
2023/04/28 00:17:05;;;;;;;10.60;9.32;;;10.60;99.90;;;;;;4989318;28;20445;-68
2023/04/28 00:19:33;;;;;;;12.43;9.48;;;10.60;99.90;;;;;;4990081;28;20081;-67
2023/04/28 00:22:00;;;;;;;13.63;8.75;;;10.50;99.90;;;;;;4988705;28;20060;-68
2023/04/28 00:24:31;;;;;;;13.07;9.68;;;10.60;99.90;;;;;;4996927;28;20082;-68
2023/04/28 00:26:58;;;;;;;12.15;8.93;;;10.50;99.90;;;;;;4990405;28;20062;-68
2023/04/28 00:29:27;;;;;;;10.30;8.48;;;10.50;99.90;;;;;;5003374;28;20510;-68
2023/04/28 00:31:55;;;;;;;10.07;8.65;;;10.50;99.90;;;;;;4998608;28;20053;-68
2023/04/28 00:34:23;;;;;;;10.55;8.73;;;10.50;99.90;;;;;;4973636;28;20050;-67
2023/04/28 00:36:50;;;;;;;11.77;8.73;;;10.60;99.90;;;;;;4989631;28;20049;-68
2023/04/28 00:39:18;;;;;;;12.05;8.93;;;10.60;99.90;;;;;;4993374;28;20045;-68
2023/04/28 00:41:46;;;;;;;10.43;8.60;;;10.60;99.90;;;;;;4990156;28;20049;-68
2023/04/28 00:44:13;;;;;;;11.90;8.35;;;10.70;99.90;;;;;;4992312;28;20129;-68
2023/04/28 00:46:41;;;;;;;10.75;8.20;;;10.80;99.90;;;;;;4991032;28;20054;-68
2023/04/28 00:49:09;;;;;;;10.38;8.60;;;10.80;99.90;;;;;;4996250;28;20042;-67
2023/04/28 00:51:36;;;;;;;12.68;8.25;;;10.90;99.90;;;;;;4988535;28;20122;-67
2023/04/28 00:54:05;;;;;;;8.88;7.72;;;10.90;99.90;;;;;;4990443;28;20117;-68
2023/04/28 00:56:33;;;;;;;11.25;7.95;;;10.90;99.90;;;;;;4989736;28;20083;-68
2023/04/28 00:59:00;;;;;;;12.35;8.60;;;11.00;99.90;;;;;;4993604;28;20050;-68
2023/04/28 01:01:28;;;;;;;10.77;8.15;;;11.00;99.90;;;;;;4993976;28;20138;-68
2023/04/28 01:03:56;;;;;;;12.77;8.98;;;11.00;99.90;;;;;;4999662;28;20057;-66
2023/04/28 01:06:24;;;;;;;11.00;8.27;;;11.00;99.90;;;;;;4974443;28;20492;-68
2023/04/28 01:08:55;;;;;;;10.02;7.85;;;11.00;99.90;;;;;;4989769;28;20073;-68
2023/04/28 01:11:22;;;;;;;9.73;8.13;;;11.00;99.90;;;;;;4980306;28;20208;-67
2023/04/28 01:14:10;;;;;;;11.35;8.63;;;11.00;99.90;;;;;;4982126;28;20282;-68
2023/04/28 01:16:40;;;;;;;13.35;8.50;;;11.00;99.90;;;;;;4988239;28;20042;-66
2023/04/28 01:19:15;;;;;;;11.38;8.05;;;11.00;99.90;;;;;;4980623;28;20042;-67
2023/04/28 01:21:43;;;;;;;10.52;8.88;;;11.00;99.90;;;;;;4968926;28;20038;-69
2023/04/28 01:24:19;;;;;;;9.85;8.35;;;11.00;99.90;;;;;;4985441;28;20552;-67
2023/04/28 01:26:47;;;;;;;12.32;8.10;;;10.90;99.90;;;;;;5002548;28;20053;-67
2023/04/28 01:29:14;;;;;;;12.27;8.75;;;10.90;99.90;;;;;;4996824;28;20040;-67
2023/04/28 01:31:41;;;;;;;11.50;8.43;;;10.90;99.90;;;;;;5009170;28;20565;-67
2023/04/28 01:34:09;;;;;;;12.63;9.07;;;10.90;99.90;;;;;;4991475;28;20026;-68
2023/04/28 01:36:36;;;;;;;9.50;8.00;;;10.90;99.90;;;;;;4991775;28;20042;-68
2023/04/28 01:39:04;;;;;;;12.98;8.55;;;10.90;99.90;;;;;;4975920;28;20069;-67
2023/04/28 01:41:35;;;;;;;15.07;8.43;;;10.90;99.90;;;;;;4996335;28;20506;-68
2023/04/28 01:44:05;;;;;;;9.60;7.90;;;10.90;99.90;;;;;;4989685;28;20042;-67
2023/04/28 01:46:33;;;;;;;11.90;8.30;;;10.90;99.90;;;;;;4987705;28;20293;-67
2023/04/28 01:49:00;;;;;;;11.30;8.40;;;11.00;99.90;;;;;;5008796;28;20046;-67
2023/04/28 01:51:27;;;;;;;9.82;8.07;;;11.00;99.90;;;;;;4995775;28;20382;-67
2023/04/28 01:53:55;;;;;;;9.20;8.30;;;11.00;99.90;;;;;;4991327;28;20478;-68
2023/04/28 01:56:23;;;;;;;9.43;8.10;;;10.90;99.90;;;;;;5000527;28;20093;-68
2023/04/28 01:58:53;;;;;;;9.23;8.15;;;10.90;99.90;;;;;;4998835;28;20042;-68
2023/04/28 02:01:20;;;;;;;12.15;8.88;;;10.90;99.90;;;;;;4994335;28;20568;-67
2023/04/28 02:03:49;;;;;;;10.55;8.60;;;10.90;99.90;;;;;;4989990;28;20130;-69
2023/04/28 02:06:17;;;;;;;11.77;8.32;;;10.90;99.90;;;;;;4989747;28;20038;-67
2023/04/28 02:08:44;;;;;;;9.82;8.60;;;10.90;99.90;;;;;;4989232;28;20438;-67
2023/04/28 02:11:12;;;;;;;12.00;8.80;;;10.80;99.90;;;;;;4978062;28;20048;-67
2023/04/28 02:13:40;;;;;;;9.82;7.68;;;10.80;99.90;;;;;;4974045;28;20129;-68
2023/04/28 02:16:08;;;;;;;11.07;8.43;;;10.80;99.90;;;;;;4974020;28;20073;-68
2023/04/28 02:18:36;;;;;;;9.68;8.05;;;10.80;99.90;;;;;;4990308;28;20126;-68
2023/04/28 02:21:10;;;;;;;13.40;8.77;;;10.70;99.90;;;;;;5005736;28;20104;-68
2023/04/28 02:23:39;;;;;;;10.73;7.93;;;10.70;99.90;;;;;;4972817;28;20502;-69
2023/04/28 02:26:06;;;;;;;10.82;8.80;;;10.80;99.90;;;;;;4996478;28;20050;-68
2023/04/28 02:28:34;;;;;;;8.82;7.93;;;10.80;99.90;;;;;;5000914;28;20047;-68
2023/04/28 02:31:09;;;;;;;9.85;7.90;;;10.80;99.90;;;;;;4994606;28;20053;-68
2023/04/28 02:33:37;;;;;;;11.48;8.23;;;10.90;99.90;;;;;;4992620;28;20049;-68
2023/04/28 02:36:05;;;;;;;10.20;8.23;;;10.90;99.90;;;;;;4991612;28;20425;-68
2023/04/28 02:38:33;;;;;;;9.80;8.10;;;10.90;99.90;;;;;;4992349;28;20049;-68
2023/04/28 02:41:06;;;;;;;10.82;8.63;;;10.90;99.90;;;;;;4991437;28;20051;-67
2023/04/28 02:43:34;;;;;;;9.90;8.20;;;11.00;99.90;;;;;;4993179;28;20125;-69
2023/04/28 02:46:03;;;;;;;11.73;8.52;;;11.00;99.90;;;;;;5000028;28;21113;-68
2023/04/28 02:48:32;;;;;;;13.75;9.55;;;11.00;99.90;;;;;;4993087;28;20418;-68
2023/04/28 02:51:00;;;;;;;10.65;7.85;;;11.00;99.90;;;;;;4993907;28;20117;-68
2023/04/28 02:53:28;;;;;;;10.88;8.85;;;11.00;99.90;;;;;;4970134;28;20042;-68
2023/04/28 02:55:55;;;;;;;9.70;8.40;;;11.00;99.90;;;;;;4990804;28;20038;-68
2023/04/28 02:58:23;;;;;;;10.30;8.35;;;11.00;99.90;;;;;;4975574;28;20042;-68
2023/04/28 03:00:50;;;;;;;10.32;8.27;;;11.10;99.90;;;;;;4990607;28;20418;-68
2023/04/28 03:03:18;;;;;;;12.63;8.18;;;11.10;99.90;;;;;;4991711;28;20038;-68
2023/04/28 03:05:45;;;;;;;10.32;8.52;;;11.10;99.90;;;;;;4990893;28;20050;-68
2023/04/28 03:08:13;;;;;;;8.88;7.75;;;11.10;99.90;;;;;;4990529;28;20100;-68
2023/04/28 03:10:40;;;;;;;14.07;9.20;;;11.20;99.90;;;;;;4992461;28;20042;-68
2023/04/28 03:13:07;;;;;;;12.40;8.90;;;11.10;99.90;;;;;;4966966;28;20046;-68
2023/04/28 03:15:35;;;;;;;10.63;8.23;;;11.10;99.90;;;;;;4991385;28;20038;-68
2023/04/28 03:18:02;;;;;;;10.93;8.18;;;11.10;99.90;;;;;;4975970;28;20149;-68
2023/04/28 03:20:30;;;;;;;9.90;8.75;;;11.20;99.90;;;;;;4991155;28;20129;-68
2023/04/28 03:22:57;;;;;;;10.68;8.13;;;11.20;99.90;;;;;;4993585;28;20414;-68
2023/04/28 03:25:24;;;;;;;14.73;8.38;;;11.20;99.90;;;;;;4974401;28;20042;-68
2023/04/28 03:27:52;;;;;;;11.05;8.45;;;11.20;99.90;;;;;;4991189;28;20156;-66
2023/04/28 03:30:19;;;;;;;10.48;7.88;;;11.10;99.90;;;;;;4989159;28;20070;-67
2023/04/28 03:32:46;;;;;;;10.88;8.52;;;11.10;99.90;;;;;;4999554;28;20057;-67
2023/04/28 03:35:15;;;;;;;10.35;8.00;;;11.10;99.90;;;;;;5006822;28;20402;-68
2023/04/28 03:37:43;;;;;;;11.63;8.15;;;11.10;99.90;;;;;;4974155;28;20042;-67
2023/04/28 03:40:11;;;;;;;13.80;8.32;;;11.10;99.90;;;;;;4992451;28;20414;-67
2023/04/28 03:43:13;;;;;;;9.88;8.35;;;11.20;99.90;;;;;;4930543;29;20479;-68
2023/04/28 03:45:57;;;;;;;10.90;7.55;;;11.10;99.90;;;;;;4947253;29;20150;-67
2023/04/28 03:48:26;;;;;;;10.07;8.05;;;11.20;99.90;;;;;;4933188;29;20428;-67
2023/04/28 03:50:54;;;;;;;13.82;8.40;;;11.10;99.90;;;;;;4939930;29;20412;-66
2023/04/28 03:53:21;;;;;;;11.77;8.07;;;11.20;99.90;;;;;;4931239;29;20054;-67
2023/04/28 03:55:49;;;;;;;12.60;8.88;;;11.10;99.90;;;;;;4938316;29;20072;-68
2023/04/28 03:58:17;;;;;;;10.85;7.90;;;11.20;99.90;;;;;;4927829;29;20055;-68
2023/04/28 04:00:45;;;;;;;10.88;7.82;;;11.20;99.90;;;;;;4941885;29;20074;-68
2023/04/28 04:03:12;;;;;;;13.63;7.78;;;11.20;99.90;;;;;;4920367;29;20071;-67
2023/04/28 04:05:42;;;;;;;13.23;7.75;;;11.20;99.90;;;;;;4922358;29;20043;-68
2023/04/28 04:08:11;;;;;;;14.13;8.60;;;11.20;99.90;;;;;;4936434;29;20124;-68
2023/04/28 04:10:38;;;;;;;9.23;7.85;;;11.30;99.90;;;;;;4914498;29;20049;-67
2023/04/28 04:13:05;;;;;;;10.00;8.20;;;11.30;99.90;;;;;;4912961;29;20151;-67
2023/04/28 04:15:33;;;;;;;10.50;8.05;;;11.30;99.90;;;;;;4937866;29;20076;-67
2023/04/28 04:18:00;;;;;;;10.77;8.18;;;11.30;99.90;;;;;;4948195;28;20061;-67
2023/04/28 04:20:37;;;;;;;12.05;9.27;;;11.30;99.90;;;;;;4982231;28;20037;-67
2023/04/28 04:23:04;;;;;;;13.27;9.10;;;11.30;99.90;;;;;;4995914;28;20037;-67
2023/04/28 04:25:31;;;;;;;13.32;9.32;;;11.40;99.90;;;;;;4986897;28;20581;-69
2023/04/28 04:27:59;;;;;;;19.35;10.40;;;11.40;99.90;;;;;;4989242;28;20046;-67
2023/04/28 04:30:26;;;;;;;12.52;9.43;;;11.40;99.90;;;;;;4972744;28;20572;-67
2023/04/28 04:32:54;;;;;;;10.20;8.43;;;11.40;99.90;;;;;;4975363;28;20052;-66
2023/04/28 04:35:22;;;;;;;11.52;8.10;;;11.40;99.90;;;;;;4982804;28;20112;-65
2023/04/28 04:37:50;;;;;;;11.43;8.73;;;11.50;99.90;;;;;;4990500;28;20422;-68
2023/04/28 04:40:19;;;;;;;9.07;8.10;;;11.50;99.90;;;;;;4989096;28;20045;-66
2023/04/28 04:42:49;;;;;;;9.98;7.72;;;11.50;99.90;;;;;;4985972;28;20046;-67
2023/04/28 04:45:18;;;;;;;10.73;8.57;;;11.60;99.90;;;;;;4982438;28;20038;-67
2023/04/28 04:47:47;;;;;;;9.40;7.60;;;11.60;99.90;;;;;;4984758;28;20039;-67
2023/04/28 04:50:15;;;;;;;9.60;7.72;;;11.70;99.90;;;;;;4988537;28;20042;-67
2023/04/28 04:52:42;;;;;;;11.80;8.25;;;11.70;99.90;;;;;;4987604;28;20034;-67
2023/04/28 04:55:10;;;;;;;9.30;7.82;;;11.70;99.90;;;;;;4986043;28;20045;-71
2023/04/28 04:57:40;;;;;;;11.25;7.93;;;11.70;99.90;;;;;;4986059;28;20050;-70
2023/04/28 05:00:26;;;;;;;11.25;8.30;;;11.70;99.90;;;;;;4983209;28;20053;-67
2023/04/28 05:02:54;;;;;;;10.23;7.80;;;11.70;99.90;;;;;;4988652;28;20042;-67
2023/04/28 05:05:22;;;;;;;9.07;7.93;;;11.70;99.90;;;;;;4990088;28;20050;-68
2023/04/28 05:08:02;;;;;;;11.80;8.13;;;11.70;99.90;;;;;;4986840;28;20050;-67
2023/04/28 05:10:30;;;;;;;13.20;8.02;;;11.70;99.90;;;;;;4989510;28;20066;-67
2023/04/28 05:12:58;;;;;;;15.63;7.97;;;11.80;99.90;;;;;;4989309;28;20581;-67
2023/04/28 05:15:25;;;;;;;10.75;7.32;;;11.80;99.90;;;;;;4972549;28;20125;-67
2023/04/28 05:18:19;;;;;;;10.57;7.90;;;11.80;99.90;;;;;;4978515;28;20041;-68
2023/04/28 05:20:47;;;;;;;11.88;8.30;;;11.80;99.90;;;;;;4989789;28;20039;-68
2023/04/28 05:23:17;;;;;;;12.38;8.02;;;11.80;99.90;;;;;;4985035;28;20050;-67
2023/04/28 05:25:44;;;;;;;11.88;7.60;;;11.80;99.90;;;;;;4973089;28;20125;-68
2023/04/28 05:28:12;;;;;;;10.82;8.13;;;11.80;99.90;;;;;;4989969;28;20042;-68
2023/04/28 05:30:43;;;;;;;12.00;9.20;;;11.90;99.90;;;;;;4984131;28;20050;-68
2023/04/28 05:33:12;;;;;;;12.68;9.23;;;12.00;99.90;;;;;;4986501;28;20038;-68
2023/04/28 05:35:41;;;;;;;11.60;7.82;;;12.00;99.90;;;;;;4987551;28;20038;-68
2023/04/28 05:38:09;;;;;;;12.60;8.45;;;12.10;99.90;;;;;;4989581;28;20792;-70
2023/04/28 05:40:37;;;;;;;11.45;8.20;;;12.10;99.90;;;;;;4971039;28;20411;-70
2023/04/28 05:43:04;;;;;;;13.55;8.27;;;12.20;99.90;;;;;;4973458;28;20046;-68
2023/04/28 05:45:32;;;;;;;8.90;7.57;;;12.20;99.90;;;;;;4990189;28;20125;-68
2023/04/28 05:47:59;;;;;;;13.20;8.23;;;12.20;99.90;;;;;;4972471;28;20050;-69
2023/04/28 05:50:27;;;;;;;16.52;8.70;;;12.30;99.90;;;;;;4988475;28;20048;-69
2023/04/28 05:52:54;;;;;;;12.52;8.60;;;12.30;99.90;;;;;;4987334;28;20120;-69
2023/04/28 05:55:23;;;;;;;13.35;8.40;;;12.40;99.90;;;;;;4975385;28;20459;-68
2023/04/28 05:57:53;;;;;;;12.38;9.60;;;12.40;99.90;;;;;;4992892;28;20054;-68
2023/04/28 06:00:21;;;;;;;13.90;8.65;;;12.40;99.90;;;;;;4993703;28;20098;-69
2023/04/28 06:02:52;;;;;;;11.80;8.13;;;12.40;99.90;;;;;;4992825;28;20458;-70
2023/04/28 06:05:20;;;;;;;13.93;8.82;;;12.40;99.90;;;;;;4977312;28;20034;-70
2023/04/28 06:07:50;;;;;;;11.17;8.90;;;12.50;99.90;;;;;;5009575;28;20061;-69
2023/04/28 06:10:22;;;;;;;13.57;9.93;;;12.40;99.90;;;;;;4977869;28;20387;-68
2023/04/28 06:12:49;;;;;;;15.07;8.70;;;12.50;99.90;;;;;;4992973;28;20126;-68
2023/04/28 06:15:17;;;;;;;14.75;9.07;;;12.60;99.90;;;;;;4993687;28;20057;-68
2023/04/28 06:17:44;;;;;;;12.73;9.27;;;12.60;99.90;;;;;;4977091;28;20457;-69
2023/04/28 06:20:12;;;;;;;16.67;8.45;;;12.70;99.90;;;;;;4994635;28;20085;-71
2023/04/28 06:22:40;;;;;;;20.60;13.35;;;12.80;99.90;;;;;;4994114;28;20057;-69
2023/04/28 06:25:08;;;;;;;11.38;8.48;;;12.70;99.90;;;;;;4993130;28;20078;-68
2023/04/28 06:27:46;;;;;;;13.82;8.88;;;12.60;99.90;;;;;;5009253;28;20043;-68
2023/04/28 06:30:19;;;;;;;12.02;9.13;;;12.50;99.90;;;;;;4994029;28;20050;-68
2023/04/28 06:32:46;;;;;;;13.02;9.07;;;12.50;99.90;;;;;;4994275;28;20401;-68
2023/04/28 06:35:15;;;;;;;13.13;9.65;;;12.60;99.90;;;;;;4992386;28;20124;-68
2023/04/28 06:37:43;;;;;;;14.68;8.55;;;12.70;99.90;;;;;;4990267;28;20578;-67
2023/04/28 06:40:10;;;;;;;9.25;7.53;;;12.80;99.90;;;;;;4994734;28;20536;-67
2023/04/28 06:42:42;;;;;;;10.88;8.65;;;12.70;99.90;;;;;;4975952;28;20096;-67
2023/04/28 06:45:18;;;;;;;13.75;8.57;;;12.70;99.90;;;;;;4968893;28;20043;-68
2023/04/28 06:47:46;;;;;;;14.45;9.10;;;12.70;99.90;;;;;;4994012;28;20050;-68
2023/04/28 06:50:13;;;;;;;10.38;8.20;;;12.70;99.90;;;;;;4976740;28;20448;-67
2023/04/28 06:52:40;;;;;;;16.08;11.65;;;12.60;99.90;;;;;;4976554;28;20039;-68
2023/04/28 06:55:08;;;;;;;11.75;8.48;;;12.50;99.90;;;;;;4977021;28;20048;-69
2023/04/28 06:57:36;;;;;;;9.25;7.90;;;12.40;99.90;;;;;;4997024;28;20374;-69
2023/04/28 07:00:05;;;;;;;10.90;8.02;;;12.40;99.90;;;;;;4996227;28;20053;-67
2023/04/28 07:02:32;;;;;;;11.15;7.88;;;12.50;99.90;;;;;;4992348;28;20069;-69
2023/04/28 07:05:00;;;;;;;12.68;8.30;;;12.50;99.90;;;;;;4991303;28;20049;-67
2023/04/28 07:07:28;;;;;;;10.50;7.55;;;12.50;99.90;;;;;;4997179;28;20442;-67
2023/04/28 07:09:55;;;;;;;15.88;8.07;;;12.50;99.90;;;;;;4998315;28;20726;-67
2023/04/28 07:12:22;;;;;;;9.18;7.65;;;12.40;99.90;;;;;;4992855;28;20169;-68
2023/04/28 07:14:50;;;;;;;11.57;8.45;;;12.30;99.90;;;;;;5002128;28;20057;-69
2023/04/28 07:17:17;;;;;;;10.02;7.85;;;12.30;99.90;;;;;;4999821;28;20058;-68
2023/04/28 07:19:45;;;;;;;10.70;8.45;;;12.30;99.90;;;;;;4993350;28;20042;-69
2023/04/28 07:22:12;;;;;;;10.35;7.95;;;12.30;99.90;;;;;;4998198;28;20128;-69
2023/04/28 07:24:40;;;;;;;16.48;8.68;;;12.30;99.90;;;;;;4997310;28;20094;-68
2023/04/28 07:27:07;;;;;;;10.57;7.90;;;12.20;99.90;;;;;;4993785;28;20498;-69
2023/04/28 07:29:36;;;;;;;10.68;8.77;;;12.20;99.90;;;;;;4997444;28;20475;-69
2023/04/28 07:32:12;;;;;;;15.55;8.93;;;12.30;99.90;;;;;;4991422;28;20078;-69
2023/04/28 07:34:40;;;;;;;16.05;10.75;;;12.30;99.90;;;;;;4991003;28;20480;-67
2023/04/28 07:37:08;;;;;;;15.35;10.15;;;12.20;99.90;;;;;;4997685;28;20266;-69
2023/04/28 07:39:38;;;;;;;18.20;11.45;;;12.20;99.90;;;;;;4979415;28;20417;-69
2023/04/28 07:42:06;;;;;;;14.05;9.52;;;12.10;99.90;;;;;;5000098;28;20489;-68
2023/04/28 07:44:34;;;;;;;14.13;9.60;;;11.90;99.90;;;;;;4989979;28;20545;-69
2023/04/28 07:47:02;;;;;;;12.32;8.73;;;11.90;99.90;;;;;;4974314;28;20058;-69
2023/04/28 07:49:31;;;;;;;16.25;9.68;;;11.80;99.90;;;;;;4992510;28;20122;-66
2023/04/28 07:51:58;;;;;;;14.40;8.82;;;11.80;99.90;;;;;;5004426;28;20125;-68
2023/04/28 07:54:26;;;;;;;10.90;8.32;;;11.90;99.90;;;;;;5011152;28;20041;-68
2023/04/28 07:56:55;;;;;;;14.07;9.40;;;11.80;99.90;;;;;;4977389;28;20469;-68
2023/04/28 07:59:22;;;;;;;13.48;8.70;;;11.80;99.90;;;;;;4975242;28;20100;-67
2023/04/28 08:01:49;;;;;;;12.80;8.70;;;11.70;99.90;;;;;;4991565;28;20069;-68
2023/04/28 08:04:17;;;;;;;16.75;9.48;;;11.70;99.90;;;;;;4981200;28;20506;-69
2023/04/28 08:06:45;;;;;;;14.00;9.43;;;11.70;99.90;;;;;;4990437;28;20046;-68
2023/04/28 08:09:12;;;;;;;13.88;9.73;;;11.70;99.90;;;;;;4987120;28;20177;-69
2023/04/28 08:11:40;;;;;;;13.02;9.38;;;11.80;99.90;;;;;;5003313;28;20074;-68
2023/04/28 08:14:07;;;;;;;16.63;9.20;;;11.90;99.90;;;;;;4989013;28;20510;-68
2023/04/28 08:16:37;;;;;;;13.02;8.80;;;12.00;99.90;;;;;;4993893;28;20141;-67
2023/04/28 08:19:04;;;;;;;15.23;9.25;;;12.10;99.90;;;;;;4997110;28;20050;-68
2023/04/28 08:21:33;;;;;;;12.05;8.70;;;12.10;99.90;;;;;;4993660;28;20069;-69
2023/04/28 08:24:00;;;;;;;10.13;8.55;;;12.00;99.90;;;;;;4995152;28;20136;-68
2023/04/28 08:26:28;;;;;;;16.00;9.70;;;12.00;99.90;;;;;;4985854;28;20424;-67
2023/04/28 08:28:55;;;;;;;14.50;9.52;;;12.10;99.90;;;;;;4995956;28;20429;-68
2023/04/28 08:31:23;;;;;;;12.07;8.45;;;12.10;99.90;;;;;;4972981;28;20424;-68
2023/04/28 08:33:50;;;;;;;16.65;9.15;;;12.30;99.90;;;;;;4990023;28;20262;-68
2023/04/28 08:36:18;;;;;;;15.52;8.55;;;12.30;99.90;;;;;;4973728;28;20046;-68
2023/04/28 08:38:45;;;;;;;13.98;8.63;;;12.40;99.90;;;;;;4991541;28;20604;-69
2023/04/28 08:41:14;;;;;;;13.77;9.13;;;12.50;99.90;;;;;;4990389;28;20038;-67
2023/04/28 08:43:42;;;;;;;13.73;9.63;;;12.50;99.90;;;;;;4989464;28;20114;-67
2023/04/28 08:46:09;;;;;;;15.38;8.82;;;12.40;99.90;;;;;;4991340;28;20034;-67
2023/04/28 08:48:44;;;;;;;14.60;8.55;;;12.40;99.90;;;;;;4989494;28;20093;-67
2023/04/28 08:51:33;;;;;;;13.88;8.45;;;12.40;99.90;;;;;;4989843;28;20108;-67
2023/04/28 08:54:03;;;;;;;13.45;9.18;;;12.50;99.90;;;;;;4989782;28;20505;-68
2023/04/28 08:56:51;;;;;;;18.95;9.95;;;12.50;99.90;;;;;;4988153;28;20148;-68
2023/04/28 08:59:19;;;;;;;11.35;8.65;;;12.30;99.90;;;;;;4990276;28;20065;-68
2023/04/28 09:01:49;;;;;;;12.45;8.70;;;12.30;99.90;;;;;;4990031;28;20052;-69
2023/04/28 09:04:17;;;;;;;13.25;8.90;;;12.40;99.90;;;;;;4984590;28;20042;-68
2023/04/28 09:06:46;;;;;;;12.90;8.98;;;12.40;99.90;;;;;;4989991;28;20054;-68
2023/04/28 09:09:21;;;;;;;17.00;9.52;;;12.30;99.90;;;;;;4988435;28;20049;-68
2023/04/28 09:11:57;;;;;;;12.48;8.52;;;12.30;99.90;;;;;;4998652;28;20132;-66
2023/04/28 09:14:25;;;;;;;11.73;8.80;;;12.20;99.90;;;;;;4991907;28;20098;-69
2023/04/28 09:16:53;;;;;;;15.20;9.35;;;12.20;99.90;;;;;;4997828;28;20090;-68
2023/04/28 09:19:21;;;;;;;13.80;8.95;;;12.10;99.90;;;;;;4989597;28;20489;-68
2023/04/28 09:21:55;;;;;;;15.93;9.43;;;12.20;99.90;;;;;;4997564;28;20434;-69
2023/04/28 09:24:26;;;;;;;13.05;8.82;;;12.20;99.90;;;;;;4988524;28;20081;-69
2023/04/28 09:26:53;;;;;;;14.65;8.48;;;12.10;99.90;;;;;;4989007;28;20051;-68
2023/04/28 09:29:22;;;;;;;11.85;8.10;;;12.20;99.90;;;;;;5000960;28;20051;-67
2023/04/28 09:31:49;;;;;;;14.02;8.18;;;12.20;99.90;;;;;;4993572;28;20398;-68
2023/04/28 09:34:17;;;;;;;14.88;8.60;;;12.20;99.90;;;;;;4976406;28;20176;-68
2023/04/28 09:36:45;;;;;;;13.50;8.93;;;12.30;99.90;;;;;;4984974;28;20401;-69
2023/04/28 09:39:12;;;;;;;12.85;9.07;;;12.30;99.90;;;;;;4993903;28;20527;-67
2023/04/28 09:41:42;;;;;;;11.38;8.98;;;12.20;99.90;;;;;;5004564;28;20321;-67
2023/04/28 09:44:11;;;;;;;13.75;8.57;;;12.30;99.90;;;;;;4993676;28;20066;-68
2023/04/28 09:46:39;;;;;;;11.65;8.38;;;12.40;99.90;;;;;;5000683;28;20061;-69
2023/04/28 09:49:07;;;;;;;13.23;9.05;;;12.50;99.90;;;;;;4985269;28;20130;-68
2023/04/28 09:51:34;;;;;;;14.63;9.35;;;12.60;99.90;;;;;;4993282;28;20073;-68
2023/04/28 09:54:02;;;;;;;16.85;8.90;;;12.80;99.90;;;;;;4997060;28;20054;-67
2023/04/28 09:56:32;;;;;;;10.20;8.45;;;13.20;99.90;;;;;;4976682;28;20125;-67
2023/04/28 09:59:01;;;;;;;13.50;9.25;;;13.60;99.90;;;;;;4994027;28;20427;-67
2023/04/28 10:01:35;;;;;;;11.27;8.70;;;13.70;99.90;;;;;;4993740;28;20050;-67
2023/04/28 10:04:05;;;;;;;12.70;9.25;;;13.70;99.90;;;;;;4994773;28;20137;-67
2023/04/28 10:06:35;;;;;;;11.43;8.23;;;13.70;99.90;;;;;;5002247;28;20046;-67
2023/04/28 10:09:04;;;;;;;12.88;9.95;;;13.70;99.90;;;;;;4993308;28;20394;-66
2023/04/28 10:11:33;;;;;;;12.63;9.85;;;13.70;99.90;;;;;;4994347;28;20418;-67
2023/04/28 10:14:01;;;;;;;15.48;9.88;;;13.60;99.90;;;;;;4997644;28;20042;-67
2023/04/28 10:16:31;;;;;;;13.80;9.10;;;13.50;99.90;;;;;;4995463;28;20038;-67
2023/04/28 10:19:02;;;;;;;13.38;9.25;;;13.50;99.90;;;;;;4993352;28;20469;-67
2023/04/28 10:21:34;;;;;;;13.95;9.38;;;13.60;99.90;;;;;;4992480;28;20047;-68
2023/04/28 10:24:05;;;;;;;13.15;9.23;;;13.70;99.90;;;;;;4992510;28;20084;-69
2023/04/28 10:27:05;;;;;;;15.20;9.93;;;14.00;99.90;;;;;;4987274;28;20042;-68
2023/04/28 10:29:33;;;;;;;14.05;9.43;;;14.10;99.90;;;;;;4997882;28;20265;-67
2023/04/28 10:32:20;;;;;;;13.63;9.52;;;14.40;99.90;;;;;;4993265;28;20069;-68
2023/04/28 10:34:48;;;;;;;28.67;17.75;;;14.50;99.90;;;;;;5000987;28;20055;-67
2023/04/28 10:37:17;;;;;;;11.63;8.90;;;14.50;99.90;;;;;;4992715;28;20043;-66
2023/04/28 10:40:23;;;;;;;13.10;9.05;;;14.80;99.90;;;;;;4992494;28;20134;-68
2023/04/28 10:42:55;;;;;;;15.43;8.70;;;14.90;99.90;;;;;;4989461;28;20414;-67
2023/04/28 10:45:47;;;;;;;15.23;9.07;;;15.10;99.90;;;;;;4995087;28;20073;-66
2023/04/28 10:48:15;;;;;;;12.25;8.90;;;15.00;99.90;;;;;;4989469;28;20096;-68
2023/04/28 10:51:02;;;;;;;11.50;8.20;;;14.90;99.90;;;;;;4992280;28;20058;-68
2023/04/28 10:53:44;;;;;;;11.35;8.02;;;14.80;99.90;;;;;;5007150;28;20073;-68
2023/04/28 10:56:18;;;;;;;12.90;8.77;;;14.70;99.90;;;;;;4982799;28;20124;-67
2023/04/28 10:58:46;;;;;;;10.20;7.60;;;14.60;99.90;;;;;;4999890;28;20150;-68
2023/04/28 11:01:23;;;;;;;16.17;10.05;;;14.50;99.90;;;;;;4992235;28;20043;-68
2023/04/28 11:03:59;;;;;;;10.65;8.07;;;14.70;99.90;;;;;;4993413;28;20141;-67
2023/04/28 11:06:34;;;;;;;11.73;8.35;;;15.10;99.90;;;;;;5004511;28;20136;-67
2023/04/28 11:09:23;;;;;;;11.77;8.90;;;15.50;99.90;;;;;;5002388;28;20145;-67
2023/04/28 11:11:59;;;;;;;9.65;7.65;;;15.60;99.90;;;;;;5003640;28;20474;-67
2023/04/28 11:14:34;;;;;;;11.18;7.43;;;15.80;99.90;;;;;;4991687;28;20038;-67
2023/04/28 11:17:07;;;;;;;11.02;7.40;;;15.90;99.90;;;;;;4992924;28;20045;-66
2023/04/28 11:19:43;;;;;;;9.45;7.60;;;16.30;99.90;;;;;;4990279;28;20038;-67
2023/04/28 11:22:19;;;;;;;12.23;7.72;;;16.30;99.90;;;;;;4988222;28;20490;-67
2023/04/28 11:24:57;;;;;;;12.02;7.38;;;16.30;99.90;;;;;;4990778;28;20486;-67
2023/04/28 11:27:26;;;;;;;8.77;7.20;;;16.20;99.90;;;;;;4990921;28;20042;-68
2023/04/28 11:29:54;;;;;;;9.90;7.20;;;15.80;99.90;;;;;;4970603;28;20078;-69
2023/04/28 11:32:35;;;;;;;8.52;6.88;;;16.00;99.90;;;;;;4988730;28;20066;-68
2023/04/28 11:35:03;;;;;;;8.85;7.07;;;15.90;99.90;;;;;;4986898;28;20430;-68
2023/04/28 11:37:31;;;;;;;11.18;7.30;;;15.90;99.90;;;;;;4986732;28;20047;-67
2023/04/28 11:40:09;;;;;;;9.13;7.20;;;15.50;99.90;;;;;;4963672;28;20114;-69
2023/04/28 11:42:47;;;;;;;9.88;7.45;;;15.50;99.90;;;;;;5001814;28;20042;-69
2023/04/28 11:45:14;;;;;;;9.32;7.00;;;15.70;99.90;;;;;;4986083;28;20043;-66
2023/04/28 11:47:42;;;;;;;9.98;7.32;;;15.80;99.90;;;;;;5002402;28;20176;-68
2023/04/28 11:50:09;;;;;;;10.48;7.03;;;15.70;99.90;;;;;;5000161;28;20058;-67
2023/04/28 11:52:47;;;;;;;9.52;7.38;;;16.00;99.90;;;;;;4991119;28;20038;-69
2023/04/28 11:55:18;;;;;;;9.75;7.95;;;15.90;99.90;;;;;;4992141;28;20041;-69
2023/04/28 11:57:45;;;;;;;10.68;7.55;;;15.80;99.90;;;;;;4993963;28;20050;-67
2023/04/28 12:00:18;;;;;;;8.70;7.20;;;16.00;99.90;;;;;;4991780;28;20137;-66
2023/04/28 12:02:46;;;;;;;8.32;6.63;;;16.30;99.90;;;;;;4994483;28;20242;-66
2023/04/28 12:05:14;;;;;;;10.63;7.70;;;16.30;99.90;;;;;;4990990;28;20050;-66
2023/04/28 12:07:43;;;;;;;9.32;6.80;;;16.40;99.90;;;;;;4989375;28;20053;-66
2023/04/28 12:10:13;;;;;;;11.27;6.72;;;16.00;99.90;;;;;;4995071;28;20049;-66
2023/04/28 12:12:41;;;;;;;9.23;7.00;;;16.30;99.90;;;;;;4999972;28;20109;-66
2023/04/28 12:15:19;;;;;;;9.70;7.20;;;16.20;99.90;;;;;;4983756;28;20556;-66
2023/04/28 12:17:49;;;;;;;7.75;6.55;;;16.10;99.90;;;;;;4986175;28;20131;-66
2023/04/28 12:20:37;;;;;;;7.70;6.90;;;16.30;99.90;;;;;;4992156;28;20537;-68
2023/04/28 12:23:06;;;;;;;8.07;6.57;;;16.10;99.90;;;;;;4983781;28;20403;-67
2023/04/28 12:25:43;;;;;;;8.43;6.85;;;16.00;99.90;;;;;;4982569;28;20042;-67
2023/04/28 12:28:11;;;;;;;11.25;9.15;;;15.80;99.90;;;;;;4988850;28;20037;-67
2023/04/28 12:30:40;;;;;;;9.07;7.38;;;15.90;99.90;;;;;;4991592;28;20090;-66
2023/04/28 12:33:25;;;;;;;8.30;7.10;;;16.20;99.90;;;;;;4993019;28;20123;-67
2023/04/28 12:35:53;;;;;;;8.98;7.43;;;16.30;99.90;;;;;;5001642;28;20050;-67
2023/04/28 12:38:25;;;;;;;7.90;6.85;;;16.50;99.90;;;;;;4990590;28;20057;-67
2023/04/28 12:40:52;;;;;;;9.07;6.78;;;16.80;99.90;;;;;;4986726;28;20046;-66
2023/04/28 12:43:22;;;;;;;7.78;6.47;;;17.00;99.90;;;;;;4989808;28;20170;-67
2023/04/28 12:45:51;;;;;;;8.20;6.47;;;17.50;99.90;;;;;;4990422;28;20043;-67
2023/04/28 12:48:22;;;;;;;8.25;6.55;;;17.90;99.90;;;;;;4989155;28;20034;-66
2023/04/28 12:50:50;;;;;;;7.03;5.88;;;17.60;99.90;;;;;;4987728;28;20128;-67
2023/04/28 12:53:18;;;;;;;8.07;6.20;;;17.80;99.90;;;;;;4981248;28;20163;-66